sensor_id;sensor_type;location;lat;lon;timestamp;pressure;altitude;pressure_sealevel;temperature;humidity
77240;BME280;66258;53.170;-2.240;2023-03-03T00:01:10;101698.91;;;12.95;57.25
77240;BME280;66258;53.170;-2.240;2023-03-03T00:03:37;101707.50;;;13.00;57.69
77240;BME280;66258;53.170;-2.240;2023-03-03T00:06:08;101700.00;;;13.12;57.61
77240;BME280;66258;53.170;-2.240;2023-03-03T00:08:36;101707.63;;;13.08;57.63
77240;BME280;66258;53.170;-2.240;2023-03-03T00:11:03;101712.84;;;12.83;57.99
77240;BME280;66258;53.170;-2.240;2023-03-03T00:13:31;101708.50;;;12.99;57.81
77240;BME280;66258;53.170;-2.240;2023-03-03T00:16:11;101719.94;;;12.93;57.96
77240;BME280;66258;53.170;-2.240;2023-03-03T00:18:41;101709.28;;;13.09;57.80
77240;BME280;66258;53.170;-2.240;2023-03-03T00:21:24;101721.09;;;13.00;58.20
77240;BME280;66258;53.170;-2.240;2023-03-03T00:23:51;101713.91;;;13.09;58.09
77240;BME280;66258;53.170;-2.240;2023-03-03T00:26:21;101715.91;;;13.07;58.17
77240;BME280;66258;53.170;-2.240;2023-03-03T00:28:50;101715.06;;;13.06;57.81
77240;BME280;66258;53.170;-2.240;2023-03-03T00:31:19;101715.78;;;12.99;57.36
77240;BME280;66258;53.170;-2.240;2023-03-03T00:33:48;101710.78;;;13.04;57.58
77240;BME280;66258;53.170;-2.240;2023-03-03T00:36:28;101715.78;;;13.08;57.36
77240;BME280;66258;53.170;-2.240;2023-03-03T00:39:13;101713.72;;;13.11;57.43
77240;BME280;66258;53.170;-2.240;2023-03-03T00:41:43;101714.72;;;13.09;57.83
77240;BME280;66258;53.170;-2.240;2023-03-03T00:44:39;101712.34;;;13.06;57.86
77240;BME280;66258;53.170;-2.240;2023-03-03T00:47:28;101717.09;;;12.95;58.71
77240;BME280;66258;53.170;-2.240;2023-03-03T00:50:25;101723.09;;;12.89;58.58
77240;BME280;66258;53.170;-2.240;2023-03-03T00:53:05;101730.31;;;12.70;58.86
77240;BME280;66258;53.170;-2.240;2023-03-03T00:55:33;101731.44;;;12.87;58.65
77240;BME280;66258;53.170;-2.240;2023-03-03T00:58:01;101728.69;;;12.97;58.77
77240;BME280;66258;53.170;-2.240;2023-03-03T01:00:29;101727.09;;;13.04;58.65
77240;BME280;66258;53.170;-2.240;2023-03-03T01:03:03;101731.72;;;12.84;58.69
77240;BME280;66258;53.170;-2.240;2023-03-03T01:05:31;101726.25;;;12.94;58.45
77240;BME280;66258;53.170;-2.240;2023-03-03T01:08:00;101728.38;;;13.00;58.19
77240;BME280;66258;53.170;-2.240;2023-03-03T01:10:30;101730.53;;;12.96;58.00
77240;BME280;66258;53.170;-2.240;2023-03-03T01:12:58;101733.97;;;12.89;57.95
77240;BME280;66258;53.170;-2.240;2023-03-03T01:15:26;101737.97;;;12.94;57.41
77240;BME280;66258;53.170;-2.240;2023-03-03T01:17:54;101734.25;;;12.95;57.12
77240;BME280;66258;53.170;-2.240;2023-03-03T01:20:21;101740.41;;;12.97;57.51
77240;BME280;66258;53.170;-2.240;2023-03-03T01:22:49;101738.69;;;12.96;57.50
77240;BME280;66258;53.170;-2.240;2023-03-03T01:25:18;101735.56;;;12.91;57.56
77240;BME280;66258;53.170;-2.240;2023-03-03T01:27:45;101735.88;;;12.79;57.54
77240;BME280;66258;53.170;-2.240;2023-03-03T01:30:13;101737.88;;;12.86;57.24
77240;BME280;66258;53.170;-2.240;2023-03-03T01:32:40;101738.28;;;12.91;56.68
77240;BME280;66258;53.170;-2.240;2023-03-03T01:35:08;101736.88;;;12.87;56.73
77240;BME280;66258;53.170;-2.240;2023-03-03T01:37:36;101746.03;;;12.86;56.94
77240;BME280;66258;53.170;-2.240;2023-03-03T01:40:05;101740.28;;;12.89;57.03
77240;BME280;66258;53.170;-2.240;2023-03-03T01:42:34;101743.16;;;12.88;56.93
77240;BME280;66258;53.170;-2.240;2023-03-03T01:45:19;101747.28;;;12.92;56.69
77240;BME280;66258;53.170;-2.240;2023-03-03T01:47:51;101746.28;;;12.93;56.52
77240;BME280;66258;53.170;-2.240;2023-03-03T01:50:29;101744.56;;;13.01;56.92
77240;BME280;66258;53.170;-2.240;2023-03-03T01:53:00;101744.97;;;13.06;57.25
77240;BME280;66258;53.170;-2.240;2023-03-03T01:55:32;101738.38;;;13.09;57.60
77240;BME280;66258;53.170;-2.240;2023-03-03T01:58:05;101743.13;;;12.97;57.60
77240;BME280;66258;53.170;-2.240;2023-03-03T02:00:36;101747.84;;;12.95;57.99
77240;BME280;66258;53.170;-2.240;2023-03-03T02:03:05;101742.19;;;12.79;58.40
77240;BME280;66258;53.170;-2.240;2023-03-03T02:05:33;101738.59;;;12.79;58.51
77240;BME280;66258;53.170;-2.240;2023-03-03T02:08:03;101738.16;;;12.83;58.70
77240;BME280;66258;53.170;-2.240;2023-03-03T02:10:30;101740.88;;;12.83;58.79
77240;BME280;66258;53.170;-2.240;2023-03-03T02:12:58;101740.75;;;12.85;58.99
77240;BME280;66258;53.170;-2.240;2023-03-03T02:15:29;101739.47;;;12.79;59.18
77240;BME280;66258;53.170;-2.240;2023-03-03T02:17:58;101732.44;;;12.86;59.44
77240;BME280;66258;53.170;-2.240;2023-03-03T02:20:45;101730.88;;;12.84;59.24
77240;BME280;66258;53.170;-2.240;2023-03-03T02:23:21;101731.34;;;12.60;59.23
77240;BME280;66258;53.170;-2.240;2023-03-03T02:26:03;101734.22;;;12.29;58.57
77240;BME280;66258;53.170;-2.240;2023-03-03T02:28:33;101731.22;;;12.52;57.66
77240;BME280;66258;53.170;-2.240;2023-03-03T02:31:04;101721.19;;;12.52;57.22
77240;BME280;66258;53.170;-2.240;2023-03-03T02:33:32;101728.06;;;12.56;56.95
77240;BME280;66258;53.170;-2.240;2023-03-03T02:35:59;101721.19;;;12.52;56.45
77240;BME280;66258;53.170;-2.240;2023-03-03T02:38:31;101718.34;;;12.54;56.82
77240;BME280;66258;53.170;-2.240;2023-03-03T02:41:09;101723.34;;;12.58;56.80
77240;BME280;66258;53.170;-2.240;2023-03-03T02:43:43;101723.19;;;12.50;56.73
77240;BME280;66258;53.170;-2.240;2023-03-03T02:46:12;101720.81;;;12.37;57.15
77240;BME280;66258;53.170;-2.240;2023-03-03T02:48:40;101731.41;;;12.21;57.70
77240;BME280;66258;53.170;-2.240;2023-03-03T02:51:07;101724.19;;;12.49;57.74
77240;BME280;66258;53.170;-2.240;2023-03-03T02:53:35;101730.38;;;12.42;57.61
77240;BME280;66258;53.170;-2.240;2023-03-03T02:56:05;101727.91;;;12.58;57.67
77240;BME280;66258;53.170;-2.240;2023-03-03T02:58:33;101730.34;;;12.61;57.43
77240;BME280;66258;53.170;-2.240;2023-03-03T03:01:00;101729.63;;;12.49;58.21
77240;BME280;66258;53.170;-2.240;2023-03-03T03:03:28;101732.94;;;12.53;58.63
77240;BME280;66258;53.170;-2.240;2023-03-03T03:05:55;101728.38;;;12.44;58.21
77240;BME280;66258;53.170;-2.240;2023-03-03T03:08:23;101721.81;;;12.46;57.90
77240;BME280;66258;53.170;-2.240;2023-03-03T03:10:52;101726.53;;;12.44;57.81
77240;BME280;66258;53.170;-2.240;2023-03-03T03:13:22;101718.47;;;12.52;57.44
77240;BME280;66258;53.170;-2.240;2023-03-03T03:15:49;101721.19;;;12.52;57.71
77240;BME280;66258;53.170;-2.240;2023-03-03T03:18:17;101725.53;;;12.45;57.80
77240;BME280;66258;53.170;-2.240;2023-03-03T03:20:45;101721.91;;;12.54;57.74
77240;BME280;66258;53.170;-2.240;2023-03-03T03:23:14;101720.81;;;12.37;57.73
77240;BME280;66258;53.170;-2.240;2023-03-03T03:25:42;101724.53;;;12.46;57.33
77240;BME280;66258;53.170;-2.240;2023-03-03T03:28:10;101724.78;;;12.53;57.28
77240;BME280;66258;53.170;-2.240;2023-03-03T03:30:40;101724.06;;;12.60;57.41
77240;BME280;66258;53.170;-2.240;2023-03-03T03:33:08;101726.19;;;12.57;57.27
77240;BME280;66258;53.170;-2.240;2023-03-03T03:35:35;101717.94;;;12.29;57.69
77240;BME280;66258;53.170;-2.240;2023-03-03T03:38:03;101713.63;;;12.56;57.38
77240;BME280;66258;53.170;-2.240;2023-03-03T03:40:31;101715.75;;;12.52;57.46
77240;BME280;66258;53.170;-2.240;2023-03-03T03:42:59;101716.34;;;12.56;57.47
77240;BME280;66258;53.170;-2.240;2023-03-03T03:45:26;101720.34;;;12.52;57.79
77240;BME280;66258;53.170;-2.240;2023-03-03T03:47:55;101722.94;;;12.44;57.81
77240;BME280;66258;53.170;-2.240;2023-03-03T03:50:22;101722.34;;;12.59;57.54
77240;BME280;66258;53.170;-2.240;2023-03-03T03:52:49;101712.66;;;12.37;57.53
77240;BME280;66258;53.170;-2.240;2023-03-03T03:55:18;101718.66;;;12.31;57.58
77240;BME280;66258;53.170;-2.240;2023-03-03T03:57:45;101722.38;;;12.40;57.63
77240;BME280;66258;53.170;-2.240;2023-03-03T04:00:13;101722.81;;;12.45;57.78
77240;BME280;66258;53.170;-2.240;2023-03-03T04:02:40;101727.78;;;12.50;58.02
77240;BME280;66258;53.170;-2.240;2023-03-03T04:05:09;101726.66;;;12.43;58.52
77240;BME280;66258;53.170;-2.240;2023-03-03T04:07:36;101722.66;;;12.37;58.55
77240;BME280;66258;53.170;-2.240;2023-03-03T04:10:04;101721.38;;;12.31;58.70
77240;BME280;66258;53.170;-2.240;2023-03-03T04:12:32;101726.94;;;12.30;58.53
77240;BME280;66258;53.170;-2.240;2023-03-03T04:15:00;101718.66;;;12.31;58.12
77240;BME280;66258;53.170;-2.240;2023-03-03T04:17:28;101718.53;;;12.14;57.53
77240;BME280;66258;53.170;-2.240;2023-03-03T04:19:55;101718.38;;;11.96;57.99
77240;BME280;66258;53.170;-2.240;2023-03-03T04:22:25;101725.25;;;12.00;57.63
77240;BME280;66258;53.170;-2.240;2023-03-03T04:24:53;101728.94;;;12.09;57.86
77240;BME280;66258;53.170;-2.240;2023-03-03T04:27:21;101731.38;;;12.12;57.84
77240;BME280;66258;53.170;-2.240;2023-03-03T04:29:48;101726.25;;;12.18;57.82
77240;BME280;66258;53.170;-2.240;2023-03-03T04:32:16;101733.25;;;12.21;57.06
77240;BME280;66258;53.170;-2.240;2023-03-03T04:34:43;101731.25;;;12.13;56.70
77240;BME280;66258;53.170;-2.240;2023-03-03T04:37:14;101731.69;;;12.18;56.14
77240;BME280;66258;53.170;-2.240;2023-03-03T04:39:44;101743.53;;;12.17;55.75
77240;BME280;66258;53.170;-2.240;2023-03-03T04:42:11;101727.81;;;12.21;55.85
77240;BME280;66258;53.170;-2.240;2023-03-03T04:44:38;101731.69;;;12.18;55.66
77240;BME280;66258;53.170;-2.240;2023-03-03T04:47:06;101731.66;;;12.09;55.53
77240;BME280;66258;53.170;-2.240;2023-03-03T04:49:33;101731.53;;;12.10;55.57
77240;BME280;66258;53.170;-2.240;2023-03-03T04:52:01;101733.09;;;12.22;55.56
77240;BME280;66258;53.170;-2.240;2023-03-03T04:54:29;101727.25;;;12.17;55.38
77240;BME280;66258;53.170;-2.240;2023-03-03T04:56:58;101721.81;;;12.17;55.48
77240;BME280;66258;53.170;-2.240;2023-03-03T04:59:26;101726.81;;;12.12;55.69
77240;BME280;66258;53.170;-2.240;2023-03-03T05:01:53;101725.66;;;11.95;55.71
77240;BME280;66258;53.170;-2.240;2023-03-03T05:04:21;101724.22;;;12.11;56.25
77240;BME280;66258;53.170;-2.240;2023-03-03T05:06:48;101727.53;;;12.14;56.08
77240;BME280;66258;53.170;-2.240;2023-03-03T05:09:16;101729.53;;;12.22;55.99
77240;BME280;66258;53.170;-2.240;2023-03-03T05:11:44;101727.81;;;12.21;56.21
77240;BME280;66258;53.170;-2.240;2023-03-03T05:14:13;101724.53;;;12.17;56.32
77240;BME280;66258;53.170;-2.240;2023-03-03T05:16:41;101722.38;;;12.11;56.11
77240;BME280;66258;53.170;-2.240;2023-03-03T05:19:08;101722.09;;;12.14;55.97
77240;BME280;66258;53.170;-2.240;2023-03-03T05:21:36;101726.53;;;12.15;55.99
77240;BME280;66258;53.170;-2.240;2023-03-03T05:24:04;101721.66;;;11.99;56.33
77240;BME280;66258;53.170;-2.240;2023-03-03T05:26:31;101721.09;;;11.96;56.95
77240;BME280;66258;53.170;-2.240;2023-03-03T05:28:58;101728.09;;;11.98;57.29
77240;BME280;66258;53.170;-2.240;2023-03-03T05:31:28;101720.81;;;11.99;57.70
77240;BME280;66258;53.170;-2.240;2023-03-03T05:33:56;101725.81;;;12.03;57.73
77240;BME280;66258;53.170;-2.240;2023-03-03T05:36:23;101722.78;;;12.07;57.47
77240;BME280;66258;53.170;-2.240;2023-03-03T05:38:51;101722.97;;;12.05;56.91
77240;BME280;66258;53.170;-2.240;2023-03-03T05:41:18;101729.25;;;12.15;56.84
77240;BME280;66258;53.170;-2.240;2023-03-03T05:43:46;101729.69;;;12.01;56.42
77240;BME280;66258;53.170;-2.240;2023-03-03T05:46:14;101729.66;;;11.82;56.24
77240;BME280;66258;53.170;-2.240;2023-03-03T05:48:43;101730.06;;;11.77;55.95
77240;BME280;66258;53.170;-2.240;2023-03-03T05:51:12;101731.50;;;11.81;55.37
77240;BME280;66258;53.170;-2.240;2023-03-03T05:53:40;101730.66;;;11.81;55.22
77240;BME280;66258;53.170;-2.240;2023-03-03T05:56:07;101726.75;;;11.74;55.67
77240;BME280;66258;53.170;-2.240;2023-03-03T05:58:35;101733.09;;;11.84;55.38
77240;BME280;66258;53.170;-2.240;2023-03-03T06:01:03;101729.06;;;11.88;55.18
77240;BME280;66258;53.170;-2.240;2023-03-03T06:03:30;101733.56;;;11.68;55.52
77240;BME280;66258;53.170;-2.240;2023-03-03T06:05:59;101726.50;;;11.86;55.50
77240;BME280;66258;53.170;-2.240;2023-03-03T06:08:27;101739.09;;;11.97;55.54
77240;BME280;66258;53.170;-2.240;2023-03-03T06:10:54;101727.66;;;11.84;55.96
77240;BME280;66258;53.170;-2.240;2023-03-03T06:13:22;101732.94;;;11.95;55.88
77240;BME280;66258;53.170;-2.240;2023-03-03T06:15:49;101732.94;;;11.95;55.65
77240;BME280;66258;53.170;-2.240;2023-03-03T06:18:16;101742.38;;;11.91;55.79
77240;BME280;66258;53.170;-2.240;2023-03-03T06:20:44;101731.38;;;11.83;56.29
77240;BME280;66258;53.170;-2.240;2023-03-03T06:23:16;101737.06;;;11.89;56.40
77240;BME280;66258;53.170;-2.240;2023-03-03T06:25:44;101741.78;;;11.87;56.25
77240;BME280;66258;53.170;-2.240;2023-03-03T06:28:11;101745.81;;;11.83;56.48
77240;BME280;66258;53.170;-2.240;2023-03-03T06:30:39;101746.38;;;11.96;56.32
77240;BME280;66258;53.170;-2.240;2023-03-03T06:33:06;101747.34;;;11.86;56.81
77240;BME280;66258;53.170;-2.240;2023-03-03T06:35:34;101753.09;;;11.83;56.63
77240;BME280;66258;53.170;-2.240;2023-03-03T06:38:02;101751.78;;;11.77;56.75
77240;BME280;66258;53.170;-2.240;2023-03-03T06:40:31;101759.66;;;11.80;56.52
77240;BME280;66258;53.170;-2.240;2023-03-03T06:42:59;101761.09;;;11.84;56.46
77240;BME280;66258;53.170;-2.240;2023-03-03T06:45:26;101757.78;;;11.81;56.65
77240;BME280;66258;53.170;-2.240;2023-03-03T06:47:53;101762.50;;;11.79;56.81
77240;BME280;66258;53.170;-2.240;2023-03-03T06:50:21;101760.78;;;11.78;56.99
77240;BME280;66258;53.170;-2.240;2023-03-03T06:52:48;101770.16;;;11.74;57.25
77240;BME280;66258;53.170;-2.240;2023-03-03T06:55:22;101764.13;;;11.60;57.86
77240;BME280;66258;53.170;-2.240;2023-03-03T06:57:51;101766.72;;;11.71;57.93
77240;BME280;66258;53.170;-2.240;2023-03-03T07:00:22;101766.22;;;11.78;57.76
77240;BME280;66258;53.170;-2.240;2023-03-03T07:02:55;101761.50;;;11.80;58.29
77240;BME280;66258;53.170;-2.240;2023-03-03T07:05:25;101769.38;;;11.83;57.63
77240;BME280;66258;53.170;-2.240;2023-03-03T07:07:53;101768.91;;;11.78;57.73
77240;BME280;66258;53.170;-2.240;2023-03-03T07:10:23;101772.16;;;11.71;57.82
77240;BME280;66258;53.170;-2.240;2023-03-03T07:12:53;101774.81;;;11.52;57.97
77240;BME280;66258;53.170;-2.240;2023-03-03T07:15:25;101782.88;;;11.73;57.72
77240;BME280;66258;53.170;-2.240;2023-03-03T07:17:56;101789.28;;;11.62;58.05
77240;BME280;66258;53.170;-2.240;2023-03-03T07:20:27;101786.56;;;11.72;57.63
77240;BME280;66258;53.170;-2.240;2023-03-03T07:22:56;101784.00;;;11.70;57.34
77240;BME280;66258;53.170;-2.240;2023-03-03T07:25:29;101790.22;;;11.82;57.05
77240;BME280;66258;53.170;-2.240;2023-03-03T07:27:59;101783.06;;;11.91;56.81
77240;BME280;66258;53.170;-2.240;2023-03-03T07:30:38;101788.09;;;11.65;57.15
77240;BME280;66258;53.170;-2.240;2023-03-03T07:33:19;101788.38;;;11.83;56.59
77240;BME280;66258;53.170;-2.240;2023-03-03T07:35:50;101789.69;;;11.67;57.09
77240;BME280;66258;53.170;-2.240;2023-03-03T07:38:29;101794.34;;;11.77;57.12
77240;BME280;66258;53.170;-2.240;2023-03-03T07:41:00;101807.63;;;11.89;56.85
77240;BME280;66258;53.170;-2.240;2023-03-03T07:43:34;101799.81;;;11.96;56.76
77240;BME280;66258;53.170;-2.240;2023-03-03T07:46:19;101799.22;;;11.92;56.78
77240;BME280;66258;53.170;-2.240;2023-03-03T07:48:49;101800.97;;;12.03;56.31
77240;BME280;66258;53.170;-2.240;2023-03-03T07:51:20;101798.13;;;12.04;56.26
77240;BME280;66258;53.170;-2.240;2023-03-03T07:53:48;101802.97;;;12.01;56.13
77240;BME280;66258;53.170;-2.240;2023-03-03T07:56:21;101794.69;;;12.02;56.14
77240;BME280;66258;53.170;-2.240;2023-03-03T07:58:55;101803.09;;;12.09;56.34
77240;BME280;66258;53.170;-2.240;2023-03-03T08:01:39;101796.09;;;12.07;55.86
77240;BME280;66258;53.170;-2.240;2023-03-03T08:04:14;101805.53;;;12.12;55.83
77240;BME280;66258;53.170;-2.240;2023-03-03T08:06:47;101812.25;;;11.98;56.11
77240;BME280;66258;53.170;-2.240;2023-03-03T08:09:43;101810.97;;;12.12;55.89
77240;BME280;66258;53.170;-2.240;2023-03-03T08:12:33;101810.28;;;12.29;55.77
77240;BME280;66258;53.170;-2.240;2023-03-03T08:15:29;101807.56;;;12.49;55.74
77240;BME280;66258;53.170;-2.240;2023-03-03T08:18:00;101815.88;;;12.57;55.38
77240;BME280;66258;53.170;-2.240;2023-03-03T08:20:45;101813.16;;;12.66;55.56
77240;BME280;66258;53.170;-2.240;2023-03-03T08:23:14;101820.13;;;12.69;55.62
77240;BME280;66258;53.170;-2.240;2023-03-03T08:25:43;101821.72;;;12.43;55.71
77240;BME280;66258;53.170;-2.240;2023-03-03T08:28:11;101825.72;;;12.58;56.15
77240;BME280;66258;53.170;-2.240;2023-03-03T08:30:40;101830.16;;;12.59;56.05
77240;BME280;66258;53.170;-2.240;2023-03-03T08:33:07;101835.03;;;12.65;55.72
77240;BME280;66258;53.170;-2.240;2023-03-03T08:35:36;101838.44;;;12.57;55.27
77240;BME280;66258;53.170;-2.240;2023-03-03T08:38:03;101829.69;;;12.15;56.34
77240;BME280;66258;53.170;-2.240;2023-03-03T08:40:31;101835.88;;;12.36;56.67
77240;BME280;66258;53.170;-2.240;2023-03-03T08:43:00;101842.03;;;12.67;56.27
77240;BME280;66258;53.170;-2.240;2023-03-03T08:45:27;101838.44;;;12.48;56.28
77240;BME280;66258;53.170;-2.240;2023-03-03T08:47:57;101841.88;;;12.50;55.83
77240;BME280;66258;53.170;-2.240;2023-03-03T08:50:24;101834.72;;;12.49;55.90
77240;BME280;66258;53.170;-2.240;2023-03-03T08:52:52;101843.91;;;12.67;55.92
77240;BME280;66258;53.170;-2.240;2023-03-03T08:55:19;101852.34;;;12.64;56.24
77240;BME280;66258;53.170;-2.240;2023-03-03T08:57:47;101845.91;;;12.65;56.67
77240;BME280;66258;53.170;-2.240;2023-03-03T09:00:16;101846.75;;;12.46;56.77
77240;BME280;66258;53.170;-2.240;2023-03-03T09:02:44;101846.31;;;12.60;57.10
77240;BME280;66258;53.170;-2.240;2023-03-03T09:05:12;101849.31;;;12.86;56.77
77240;BME280;66258;53.170;-2.240;2023-03-03T09:07:40;101847.75;;;12.64;56.83
77240;BME280;66258;53.170;-2.240;2023-03-03T09:10:10;101851.03;;;12.39;57.47
77240;BME280;66258;53.170;-2.240;2023-03-03T09:12:39;101849.03;;;12.41;57.41
77240;BME280;66258;53.170;-2.240;2023-03-03T09:15:14;101856.59;;;12.47;58.04
77240;BME280;66258;53.170;-2.240;2023-03-03T09:17:42;101851.31;;;12.74;57.28
77240;BME280;66258;53.170;-2.240;2023-03-03T09:20:35;101851.25;;;13.13;57.03
77240;BME280;66258;53.170;-2.240;2023-03-03T09:23:34;101856.59;;;13.24;57.37
77240;BME280;66258;53.170;-2.240;2023-03-03T09:26:22;101859.13;;;13.35;57.14
77240;BME280;66258;53.170;-2.240;2023-03-03T09:29:13;101855.53;;;13.45;56.51
77240;BME280;66258;53.170;-2.240;2023-03-03T09:31:44;101857.53;;;13.33;56.20
77240;BME280;66258;53.170;-2.240;2023-03-03T09:34:18;101849.56;;;13.22;56.12
77240;BME280;66258;53.170;-2.240;2023-03-03T09:36:47;101851.81;;;13.36;55.63
77240;BME280;66258;53.170;-2.240;2023-03-03T09:39:17;101847.00;;;12.91;56.52
77240;BME280;66258;53.170;-2.240;2023-03-03T09:42:09;101852.91;;;12.77;57.84
77240;BME280;66258;53.170;-2.240;2023-03-03T09:50:55;101854.03;;;13.03;56.42
77240;BME280;66258;53.170;-2.240;2023-03-03T09:53:40;101867.88;;;13.10;56.70
77240;BME280;66258;53.170;-2.240;2023-03-03T09:56:18;101860.59;;;12.72;57.65
77240;BME280;66258;53.170;-2.240;2023-03-03T09:59:03;101855.47;;;12.59;57.71
77240;BME280;66258;53.170;-2.240;2023-03-03T10:01:47;101861.19;;;12.56;58.29
77240;BME280;66258;53.170;-2.240;2023-03-03T10:04:47;101869.34;;;12.76;58.52
77240;BME280;66258;53.170;-2.240;2023-03-03T10:07:27;101862.09;;;12.07;59.59
77240;BME280;66258;53.170;-2.240;2023-03-03T10:10:15;101863.88;;;12.37;59.88
77240;BME280;66258;53.170;-2.240;2023-03-03T10:12:51;101865.91;;;12.73;58.46
77240;BME280;66258;53.170;-2.240;2023-03-03T10:15:36;101860.56;;;13.11;57.63
77240;BME280;66258;53.170;-2.240;2023-03-03T10:18:14;101859.31;;;13.24;57.09
77240;BME280;66258;53.170;-2.240;2023-03-03T10:20:55;101860.03;;;13.17;57.09
77240;BME280;66258;53.170;-2.240;2023-03-03T10:23:41;101862.28;;;13.12;56.69
77240;BME280;66258;53.170;-2.240;2023-03-03T10:26:18;101863.91;;;12.85;57.01
77240;BME280;66258;53.170;-2.240;2023-03-03T10:29:07;101869.47;;;12.74;57.37
77240;BME280;66258;53.170;-2.240;2023-03-03T10:31:47;101874.63;;;12.77;57.84
77240;BME280;66258;53.170;-2.240;2023-03-03T10:34:31;101874.19;;;12.72;57.07
77240;BME280;66258;53.170;-2.240;2023-03-03T10:37:09;101878.78;;;13.20;56.48
77240;BME280;66258;53.170;-2.240;2023-03-03T10:39:51;101877.63;;;12.74;56.84
77240;BME280;66258;53.170;-2.240;2023-03-03T10:42:53;101878.78;;;12.81;56.69
77240;BME280;66258;53.170;-2.240;2023-03-03T10:45:52;101883.06;;;12.74;57.32
77240;BME280;66258;53.170;-2.240;2023-03-03T10:48:46;101887.06;;;13.08;56.24
77240;BME280;66258;53.170;-2.240;2023-03-03T10:51:25;101887.75;;;13.11;55.70
77240;BME280;66258;53.170;-2.240;2023-03-03T10:54:09;101888.66;;;12.63;56.71
77240;BME280;66258;53.170;-2.240;2023-03-03T10:56:46;101889.22;;;12.57;57.58
77240;BME280;66258;53.170;-2.240;2023-03-03T10:59:36;101887.78;;;13.30;56.22
77240;BME280;66258;53.170;-2.240;2023-03-03T11:02:14;101895.44;;;13.54;55.78
77240;BME280;66258;53.170;-2.240;2023-03-03T11:07:45;101888.78;;;13.00;56.13
77240;BME280;66258;53.170;-2.240;2023-03-03T11:10:23;101892.97;;;13.70;55.63
77240;BME280;66258;53.170;-2.240;2023-03-03T11:13:02;101888.97;;;13.55;54.93
77240;BME280;66258;53.170;-2.240;2023-03-03T11:15:44;101899.84;;;13.64;53.89
77240;BME280;66258;53.170;-2.240;2023-03-03T11:18:20;101892.59;;;13.92;54.22
77240;BME280;66258;53.170;-2.240;2023-03-03T11:20:56;101902.66;;;14.09;54.45
77240;BME280;66258;53.170;-2.240;2023-03-03T11:26:43;101902.06;;;14.78;52.74
77240;BME280;66258;53.170;-2.240;2023-03-03T11:29:23;101913.78;;;14.89;51.90
77240;BME280;66258;53.170;-2.240;2023-03-03T11:32:03;101917.25;;;14.81;50.85
77240;BME280;66258;53.170;-2.240;2023-03-03T11:34:47;101917.88;;;14.57;49.75
77240;BME280;66258;53.170;-2.240;2023-03-03T11:37:22;101917.59;;;13.68;51.10
77240;BME280;66258;53.170;-2.240;2023-03-03T11:39:52;101924.00;;;13.77;51.65
77240;BME280;66258;53.170;-2.240;2023-03-03T11:42:25;101918.19;;;13.99;51.51
77240;BME280;66258;53.170;-2.240;2023-03-03T11:44:59;101918.13;;;14.36;51.13
77240;BME280;66258;53.170;-2.240;2023-03-03T11:47:36;101917.59;;;14.33;50.64
77240;BME280;66258;53.170;-2.240;2023-03-03T11:50:13;101917.03;;;14.29;50.58
77240;BME280;66258;53.170;-2.240;2023-03-03T11:52:47;101925.97;;;14.49;50.57
77240;BME280;66258;53.170;-2.240;2023-03-03T11:55:21;101920.31;;;14.33;51.29
77240;BME280;66258;53.170;-2.240;2023-03-03T11:57:54;101920.09;;;14.17;52.01
77240;BME280;66258;53.170;-2.240;2023-03-03T12:00:28;101920.69;;;14.38;52.15
77240;BME280;66258;53.170;-2.240;2023-03-03T12:03:12;101914.03;;;13.58;53.47
77240;BME280;66258;53.170;-2.240;2023-03-03T12:05:50;101913.03;;;13.59;54.38
77240;BME280;66258;53.170;-2.240;2023-03-03T12:08:31;101906.22;;;13.46;54.43
77240;BME280;66258;53.170;-2.240;2023-03-03T12:11:07;101914.13;;;13.76;53.68
77240;BME280;66258;53.170;-2.240;2023-03-03T12:13:46;101902.44;;;13.56;53.09
77240;BME280;66258;53.170;-2.240;2023-03-03T12:16:25;101913.69;;;13.81;53.44
77240;BME280;66258;53.170;-2.240;2023-03-03T12:19:10;101914.75;;;13.60;52.78
77240;BME280;66258;53.170;-2.240;2023-03-03T12:22:04;101908.66;;;13.86;51.70
77240;BME280;66258;53.170;-2.240;2023-03-03T12:24:54;101918.03;;;14.01;51.36
77240;BME280;66258;53.170;-2.240;2023-03-03T12:27:29;101916.31;;;14.27;50.63
77240;BME280;66258;53.170;-2.240;2023-03-03T12:30:08;101915.53;;;14.44;50.51
77240;BME280;66258;53.170;-2.240;2023-03-03T12:32:53;101912.56;;;14.56;50.28
77240;BME280;66258;53.170;-2.240;2023-03-03T12:35:33;101905.44;;;14.55;49.50
77240;BME280;66258;53.170;-2.240;2023-03-03T12:38:10;101904.25;;;14.57;49.64
77240;BME280;66258;53.170;-2.240;2023-03-03T12:40:45;101893.53;;;14.73;49.13
77240;BME280;66258;53.170;-2.240;2023-03-03T12:43:24;101901.22;;;14.78;48.85
77240;BME280;66258;53.170;-2.240;2023-03-03T12:46:03;101898.13;;;14.73;49.49
77240;BME280;66258;53.170;-2.240;2023-03-03T12:48:39;101896.31;;;14.64;48.44
77240;BME280;66258;53.170;-2.240;2023-03-03T12:51:16;101899.50;;;14.77;48.94
77240;BME280;66258;53.170;-2.240;2023-03-03T12:54:13;101897.88;;;14.84;49.21
77240;BME280;66258;53.170;-2.240;2023-03-03T12:56:44;101895.38;;;14.91;48.93
77240;BME280;66258;53.170;-2.240;2023-03-03T12:59:19;101894.69;;;14.71;48.92
77240;BME280;66258;53.170;-2.240;2023-03-03T13:01:57;101895.59;;;14.62;49.09
77240;BME280;66258;53.170;-2.240;2023-03-03T13:04:32;101893.03;;;14.78;49.40
77240;BME280;66258;53.170;-2.240;2023-03-03T13:07:12;101893.81;;;15.06;49.87
77240;BME280;66258;53.170;-2.240;2023-03-03T13:09:56;101888.47;;;15.22;50.05
77240;BME280;66258;53.170;-2.240;2023-03-03T13:12:34;101893.16;;;15.30;48.98
77240;BME280;66258;53.170;-2.240;2023-03-03T13:15:11;101881.84;;;15.25;48.69
77240;BME280;66258;53.170;-2.240;2023-03-03T13:17:50;101887.00;;;15.28;49.85
77240;BME280;66258;53.170;-2.240;2023-03-03T13:20:28;101889.31;;;15.23;49.25
77240;BME280;66258;53.170;-2.240;2023-03-03T13:23:05;101887.75;;;14.94;49.40